Latest Weather Observations for Perisher Valley

IDN60801

Issued at 9:05 pm EDT Tuesday 21 October 2014 (issued every 30 minutes, with the page automatically refreshed every 10 minutes)

About weather observations | Map of weather stations | Latest weather observations for NSW | Other Formats
Station Details ID: 071075 Name: PERISHER VALLEY AWS Lat: -36.41 Lon: 148.41 Height: 1738.0 m
Data from the previous 72 hours. | See also: Recent months at Perisher Valley
Date/Time
EDT
Temp
°C
App
Temp
°C
Dew
Point
Rel
Hum
%
Delta-T
°C
Wind Press
QNH
hPa
Press
MSL
hPa
Rain
since 9 am
mm
Dir
 
Spd
km/h
Gust
km/h
Spd
kts
Gust
kts
21/09:00pm 4.7 2.9 3.7 93 0.5 WSW 2 4 1 2 - - 0.0
21/08:30pm 5.2 3.8 3.4 88 0.8 S 0 4 0 2 - - 0.0
21/08:00pm 6.3 4.6 3.8 84 1.2 SW 2 4 1 2 - - 0.0
21/07:30pm 8.6 7.2 5.7 82 1.5 NNE 2 4 1 2 - - 0.0
21/07:00pm 10.5 9.0 6.8 78 1.9 NNE 4 6 2 3 - - 0.0
21/06:30pm 12.4 11.1 7.5 72 2.6 NNE 4 9 2 5 - - 0.0
21/06:00pm 13.1 11.1 7.3 68 3.1 E 7 13 4 7 - - 0.0
21/05:30pm 13.9 12.5 7.4 65 3.5 ENE 4 7 2 4 - - 0.0
21/05:00pm 13.3 11.5 7.3 67 3.2 E 6 9 3 5 - - 0.0
21/04:30pm 13.0 12.0 7.2 68 3.1 SE 2 6 1 3 - - 0.0
21/04:00pm 12.9 11.0 6.9 67 3.2 NNE 6 11 3 6 - - 0.0
21/03:30pm 13.3 11.5 7.1 66 3.3 E 6 19 3 10 - - 0.0
21/03:00pm 13.7 11.5 6.1 60 4.0 SE 7 15 4 8 - - 0.0
21/02:30pm 14.7 12.7 7.0 60 4.1 SE 7 17 4 9 - - 0.0
21/02:00pm 15.3 13.4 6.8 57 4.6 ESE 6 13 3 7 - - 0.0
21/01:30pm 14.7 12.2 6.5 58 4.4 SSE 9 17 5 9 - - 0.0
21/01:00pm 15.9 13.6 7.4 57 4.6 E 9 17 5 9 - - 0.0
21/12:30pm 15.1 12.4 7.2 59 4.3 NE 11 20 6 11 - - 0.0
21/12:00pm 14.1 11.4 5.7 57 4.4 NNE 9 17 5 9 - - 0.0
21/11:30am 14.4 11.2 5.0 53 4.8 NNE 11 17 6 9 - - 0.0
21/11:00am 14.7 11.2 3.5 47 5.6 ENE 11 17 6 9 - - 0.0
21/10:30am 13.7 10.8 4.8 55 4.5 NE 9 15 5 8 - - 0.0
21/10:00am 13.5 10.2 2.7 48 5.3 ENE 9 15 5 8 - - 0.0
21/09:30am 12.9 10.7 7.8 71 2.8 ENE 9 15 5 8 - - 0.0
21/09:00am 10.8 8.5 4.9 67 3.0 E 6 9 3 5 - - 0.0
21/08:30am 8.7 7.7 7.5 92 0.6 E 2 4 1 2 - - 0.0
21/08:00am 5.9 4.8 5.2 95 0.3 CALM 0 2 0 1 - - 0.0
21/07:30am 2.4 0.7 2.0 97 0.2 CALM 0 0 0 0 - - 0.0
21/07:00am 0.1 -1.9 -0.3 97 0.2 CALM 0 0 0 0 - - 0.0
21/06:30am 0.1 -1.9 -0.3 97 0.2 CALM 0 2 0 1 - - 0.0
21/06:00am 1.0 -0.9 0.7 98 0.1 SSW 0 2 0 1 - - 0.0
21/05:30am 1.3 -0.5 1.0 98 0.1 CALM 0 4 0 2 - - 0.0
21/05:00am 1.5 -0.3 1.2 98 0.1 CALM 0 2 0 1 - - 0.0
21/04:30am 1.4 -0.4 1.1 98 0.1 CALM 0 2 0 1 - - 0.0
21/04:00am 1.7 -0.1 1.4 98 0.1 CALM 0 4 0 2 - - 0.0
21/03:30am 2.2 -0.2 1.9 98 0.1 NE 4 6 2 3 - - 0.0
21/03:00am 2.3 -0.5 2.0 98 0.1 NNE 6 11 3 6 - - 0.0
21/02:30am 2.7 0.0 2.4 98 0.1 NNE 6 9 3 5 - - 0.0
21/02:00am 3.0 0.1 2.7 98 0.1 NE 7 13 4 7 - - 0.0
21/01:30am 3.0 0.3 2.7 98 0.1 NNE 6 13 3 7 - - 0.0
21/01:00am 3.1 0.4 2.8 98 0.1 NNE 6 13 3 7 - - 0.0
21/12:30am 3.4 0.8 3.1 98 0.1 NE 6 11 3 6 - - 0.0
21/12:00am 3.6 1.0 3.3 98 0.1 NE 6 11 3 6 - - 0.0
 
Date/Time
EDT
Temp
°C
App
Temp
°C
Dew
Point
Rel
Hum
%
Delta-T
°C
Wind Press
QNH
hPa
Press
MSL
hPa
Rain
since 9 am
mm
Dir
 
Spd
km/h
Gust
km/h
Spd
kts
Gust
kts
20/11:30pm 3.9 1.2 3.6 98 0.1 NE 7 13 4 7 - - 0.0
20/11:00pm 4.0 1.3 3.7 98 0.1 NE 7 13 4 7 - - 0.0
20/10:30pm 4.2 1.5 3.9 98 0.1 NE 7 11 4 6 - - 0.0
20/10:00pm 4.1 1.6 3.8 98 0.1 N 6 9 3 5 - - 0.0
20/09:30pm 4.4 2.0 4.1 98 0.1 NE 6 11 3 6 - - 0.0
20/09:00pm 4.4 1.8 4.0 97 0.2 NE 7 11 4 6 - - 0.0
20/08:30pm 4.7 2.3 4.3 97 0.2 NE 6 9 3 5 - - 0.0
20/08:00pm 4.8 2.4 4.2 96 0.3 ENE 6 9 3 5 - - 0.0
20/07:30pm 4.9 2.4 4.0 94 0.4 E 6 7 3 4 - - 0.0
20/07:00pm 5.3 2.8 4.0 91 0.6 E 6 11 3 6 - - 0.0
20/06:30pm 6.1 3.7 4.1 87 1.0 E 6 9 3 5 - - 0.0
20/06:00pm 7.5 5.0 4.8 83 1.3 E 7 11 4 6 - - 0.0
20/05:30pm 7.3 5.0 4.8 84 1.2 ENE 6 9 3 5 - - 0.0
20/05:00pm 7.2 4.8 4.3 82 1.4 E 6 11 3 6 - - 0.0
20/04:30pm 9.2 6.7 5.0 75 2.1 ENE 7 15 4 8 - - 0.0
20/04:00pm 10.0 7.6 5.4 73 2.3 NE 7 17 4 9 - - 0.0
20/03:30pm 10.5 8.2 5.7 72 2.4 ENE 7 13 4 7 - - 0.0
20/03:00pm 11.3 8.7 6.0 70 2.7 E 9 17 5 9 - - 0.0
20/02:30pm 12.2 9.3 6.7 69 2.9 E 11 19 6 10 - - 0.0
20/02:00pm 12.4 9.6 6.9 69 2.9 SE 11 22 6 12 - - 0.0
20/01:30pm 12.3 10.4 6.6 68 3.0 ENE 6 13 3 7 - - 0.0
20/01:00pm 13.7 11.4 7.5 66 3.3 E 9 20 5 11 - - 0.0
20/12:30pm 12.6 10.0 6.2 65 3.3 ENE 9 17 5 9 - - 0.0
20/12:00pm 12.9 10.4 6.5 65 3.4 ENE 9 15 5 8 - - 0.0
20/11:30am 13.6 10.4 6.9 64 3.6 NE 13 19 7 10 - - 0.0
20/11:00am 12.0 8.7 6.3 68 3.0 NE 13 19 7 10 - - 0.0
20/10:30am 10.7 8.1 6.1 73 2.4 NE 9 15 5 8 - - 0.0
20/10:00am 10.1 7.6 6.4 78 1.9 ENE 9 15 5 8 - - 0.0
20/09:30am 8.7 4.9 5.6 81 1.6 E 15 20 8 11 - - 0.0
20/09:00am 9.4 5.7 4.6 72 2.4 NNE 13 20 7 11 - - 0.0
20/08:30am 11.5 9.7 5.4 66 3.1 NNE 4 9 2 5 - - 0.0
20/08:00am 7.3 5.0 5.0 85 1.1 E 6 9 3 5 - - 0.0
20/07:30am 4.2 2.0 3.2 93 0.5 ENE 4 7 2 4 - - 0.0
20/07:00am 2.2 -0.1 0.1 86 0.9 NE 2 6 1 3 - - 0.0
20/06:30am 4.4 2.0 -0.4 71 2.0 NNW 2 6 1 3 - - 0.0
20/06:00am 3.7 1.4 0.4 79 1.4 NNW 2 4 1 2 - - 0.0
20/05:30am 5.8 3.5 0.2 67 2.4 NW 2 4 1 2 - - 0.0
20/05:00am 6.4 4.1 0.3 65 2.7 N 2 11 1 6 - - 0.0
20/04:30am 8.6 6.1 1.7 62 3.2 N 4 7 2 4 - - 0.0
20/04:00am 8.6 5.9 0.6 57 3.6 N 4 9 2 5 - - 0.0
20/03:30am 10.0 7.7 0.3 51 4.4 W 2 9 1 5 - - 0.0
20/03:00am 10.4 7.3 0.4 50 4.5 NW 6 19 3 10 - - 0.0
20/02:30am 10.8 8.1 0.5 49 4.7 NW 4 9 2 5 - - 0.0
20/02:00am 10.7 6.7 0.7 50 4.6 NW 11 33 6 18 - - 0.0
20/01:30am 10.4 7.3 1.2 53 4.3 N 7 17 4 9 - - 0.0
20/01:00am 10.6 7.5 1.4 53 4.3 NNW 7 17 4 9 - - 0.0
20/12:30am 9.6 6.7 1.5 57 3.7 N 6 15 3 8 - - 0.0
20/12:00am 9.5 6.9 0.9 55 3.9 N 4 7 2 4 - - 0.0
 
Date/Time
EDT
Temp
°C
App
Temp
°C
Dew
Point
Rel
Hum
%
Delta-T
°C
Wind Press
QNH
hPa
Press
MSL
hPa
Rain
since 9 am
mm
Dir
 
Spd
km/h
Gust
km/h
Spd
kts
Gust
kts
19/11:30pm 10.5 7.4 1.1 52 4.3 NW 7 17 4 9 - - 0.0
19/11:00pm 10.7 7.2 1.0 51 4.5 WNW 9 20 5 11 - - 0.0
19/10:30pm 10.9 7.7 0.9 50 4.6 WNW 7 17 4 9 - - 0.0
19/10:00pm 10.7 6.9 1.8 54 4.2 WNW 11 20 6 11 - - 0.0
19/09:30pm 10.5 7.1 2.1 56 4.0 W 9 17 5 9 - - 0.0
19/09:00pm 10.8 6.6 1.6 53 4.3 W 13 43 7 23 - - 0.0
19/08:30pm 10.2 6.1 2.1 57 3.8 W 13 26 7 14 - - 0.0
19/08:00pm 10.2 6.0 1.6 55 4.0 W 13 28 7 15 - - 0.0
19/07:30pm 10.6 5.1 0.9 51 4.5 W 19 35 10 19 - - 0.0
19/07:00pm 10.9 5.5 1.4 52 4.4 W 19 35 10 19 - - 0.0
19/06:30pm 11.0 5.3 0.7 49 4.7 W 20 37 11 20 - - 0.0
19/06:00pm 11.2 5.6 1.2 50 4.7 W 20 33 11 18 - - 0.0
19/05:30pm 12.4 6.8 0.2 43 5.6 W 19 33 10 18 - - 0.0
19/05:00pm 12.9 7.3 0.0 41 5.9 W 19 35 10 19 - - 0.0
19/04:30pm 13.6 8.5 -1.9 34 6.9 WNW 15 30 8 16 - - 0.0
19/04:00pm 13.5 7.4 -2.4 33 7.0 W 20 32 11 17 - - 0.0
19/03:30pm 14.9 10.0 -0.8 34 7.2 WNW 15 28 8 15 - - 0.0
19/03:00pm 14.4 8.6 -1.2 34 7.1 WNW 19 33 10 18 - - 0.0
19/02:30pm 14.4 8.9 0.6 39 6.5 WNW 19 30 10 16 - - 0.0
19/02:00pm 14.1 8.6 0.4 39 6.4 W 19 33 10 18 - - 0.0
19/01:30pm 15.0 10.2 0.4 37 6.9 W 15 32 8 17 - - 0.0
19/01:00pm 16.6 11.6 1.1 35 7.5 WNW 17 30 9 16 - - 0.0
19/12:30pm 14.5 8.6 -0.8 35 7.0 W 20 35 11 19 - - 0.0
19/12:00pm 14.4 8.8 -2.5 31 7.5 W 17 28 9 15 - - 0.0
19/11:30am 13.9 8.2 -3.4 30 7.5 W 17 28 9 15 - - 0.0
19/11:00am 15.3 9.4 -2.2 30 7.8 WNW 19 33 10 18 - - 0.0
19/10:30am 15.4 10.9 -0.4 34 7.3 WNW 13 26 7 14 - - 0.0
19/10:00am 13.7 9.4 -1.9 34 6.9 WNW 11 20 6 11 - - 0.0
19/09:30am 14.6 9.5 -1.9 32 7.4 W 15 28 8 15 - - 0.0
19/09:00am 13.9 8.0 -2.1 33 7.1 W 19 30 10 16 - - 0.0
19/08:30am 13.8 9.2 -1.0 36 6.7 W 13 32 7 17 - - 0.0
19/08:00am 13.2 9.3 -1.2 37 6.5 W 9 17 5 9 - - 0.0
19/07:30am 12.5 7.9 -1.1 39 6.1 W 13 24 7 13 - - 0.0
19/07:00am 10.8 6.0 -2.9 38 5.8 W 13 24 7 13 - - 0.0
19/06:30am 9.3 5.1 -4.3 38 5.5 WSW 9 20 5 11 - - 0.0
19/06:00am 9.4 4.3 -4.9 36 5.7 W 13 22 7 12 - - 0.0
19/05:30am 10.0 4.2 -4.4 36 5.8 W 17 28 9 15 - - 0.0
19/05:00am 6.2 3.2 -5.1 44 4.3 WSW 2 9 1 5 - - 0.0
19/04:30am 8.2 5.0 -3.3 44 4.7 W 4 15 2 8 - - 0.0
19/04:00am 8.6 4.8 -3.6 42 5.0 WSW 7 19 4 10 - - 0.0
19/03:30am 9.3 5.4 -1.4 47 4.6 W 9 22 5 12 - - 0.0
19/03:00am 9.3 4.6 0.7 55 3.9 W 15 24 8 13 - - 0.0
19/02:30am 9.3 3.9 1.0 56 3.8 WNW 19 32 10 17 - - 0.0
19/02:00am 9.2 4.2 1.6 59 3.5 W 17 28 9 15 - - 0.0
19/01:30am 9.3 4.1 2.2 61 3.3 W 19 30 10 16 - - 0.0
19/01:00am 9.3 4.5 2.4 62 3.2 W 17 26 9 14 - - 0.0
19/12:30am 9.2 4.1 3.0 65 3.0 W 19 28 10 15 - - 0.0
19/12:00am 8.8 3.8 3.6 70 2.5 W 19 28 10 15 - - 0.0
 
Date/Time
EDT
Temp
°C
App
Temp
°C
Dew
Point
Rel
Hum
%
Delta-T
°C
Wind Press
QNH
hPa
Press
MSL
hPa
Rain
since 9 am
mm
Dir
 
Spd
km/h
Gust
km/h
Spd
kts
Gust
kts
18/11:30pm 8.4 3.4 3.8 73 2.2 W 19 28 10 15 - - 0.0
18/11:00pm 7.9 3.8 4.5 79 1.7 W 15 28 8 15 - - 0.0
18/10:30pm 3.1 1.0 1.5 89 0.7 SSW 2 4 1 2 - - 0.0
18/10:00pm 3.3 1.5 1.3 87 0.9 CALM 0 0 0 0 - - 0.0
18/09:30pm 3.9 2.2 1.8 86 0.9 CALM 0 0 0 0 - - 0.0

Other Formats:

Comma delimited format used in spreadsheet applications
http://www.bom.gov.au/fwo/IDN60801/IDN60801.94915.axf

JavaScript Object Notation format (JSON) in row-major order
http://www.bom.gov.au/fwo/IDN60801/IDN60801.94915.json